XBJCS MPTO-MHRO
Flight info
| Callsign | XBJCS |
|---|---|
| Flight time | 1h 45m |
| Altitude | 18000 |
| Route | EGETA V11 TBG/N0485F430 UM419 AROVI/N0479F450 UM419 ANSON/N0486F430 UM206 BTO |
| Aircraft | C750/M-SBDE3FGHRWXY/S |
Departure
| Time | 2026-04-29 23:04 |
|---|---|
| Airport | Tocumen International Airport (MPTO) |
Arrival
| Time | 2026-04-30 00:49 |
|---|---|
| Airport | Juan Manuel Gálvez International Airport (MHRO) |
| Time | Latitude | Longitude | Altitude | Speed | Heading |
|---|---|---|---|---|---|
| 2026-04-29 22:53 | 9.07780 | -79.38093 | 27 ft | 0 kts | 211° |
| 2026-04-29 22:59 | 9.07779 | -79.38095 | 27 ft | 0 kts | 233° |
| 2026-04-29 22:59 | 9.07780 | -79.38099 | 27 ft | 1 kts | 280° |
| 2026-04-29 23:00 | 9.07791 | -79.38104 | 27 ft | 3 kts | 342° |
| 2026-04-29 23:00 | 9.07830 | -79.38116 | 28 ft | 8 kts | 342° |
| 2026-04-29 23:00 | 9.07850 | -79.38138 | 28 ft | 5 kts | 304° |
| 2026-04-29 23:00 | 9.07871 | -79.38177 | 30 ft | 7 kts | 289° |
| 2026-04-29 23:01 | 9.07842 | -79.38219 | 31 ft | 10 kts | 210° |
| 2026-04-29 23:01 | 9.07766 | -79.38263 | 31 ft | 16 kts | 209° |
| 2026-04-29 23:01 | 9.07655 | -79.38332 | 31 ft | 21 kts | 214° |
| 2026-04-29 23:01 | 9.07519 | -79.38413 | 31 ft | 21 kts | 211° |
| 2026-04-29 23:02 | 9.07410 | -79.38478 | 31 ft | 15 kts | 210° |
| 2026-04-29 23:02 | 9.07341 | -79.38532 | 32 ft | 8 kts | 244° |
| 2026-04-29 23:02 | 9.07341 | -79.38554 | 33 ft | 0 kts | 286° |
| 2026-04-29 23:03 | 9.07359 | -79.38591 | 38 ft | 11 kts | 299° |
| 2026-04-29 23:03 | 9.07415 | -79.38645 | 45 ft | 16 kts | 356° |
| 2026-04-29 23:03 | 9.07572 | -79.38556 | 45 ft | 50 kts | 31° |
| 2026-04-29 23:03 | 9.07924 | -79.38347 | 44 ft | 123 kts | 31° |
| 2026-04-29 23:04 | 9.08833 | -79.37802 | 229 ft | 160 kts | 30° |
| 2026-04-29 23:04 | 9.10121 | -79.37076 | 1177 ft | 169 kts | 24° |
| 2026-04-29 23:04 | 9.10795 | -79.36568 | 1357 ft | 194 kts | 50° |
| 2026-04-29 23:04 | 9.11125 | -79.35158 | 1735 ft | 229 kts | 98° |
| 2026-04-29 23:05 | 9.10327 | -79.33722 | 2191 ft | 255 kts | 139° |
| 2026-04-29 23:05 | 9.08639 | -79.33002 | 2689 ft | 279 kts | 174° |
| 2026-04-29 23:05 | 9.06638 | -79.33099 | 3320 ft | 298 kts | 188° |
| 2026-04-29 23:05 | 9.04568 | -79.33462 | 3956 ft | 294 kts | 191° |
| 2026-04-29 23:06 | 9.02649 | -79.33895 | 4523 ft | 284 kts | 193° |
| 2026-04-29 23:06 | 9.00731 | -79.34401 | 5076 ft | 284 kts | 195° |
| 2026-04-29 23:06 | 8.98812 | -79.34979 | 5617 ft | 288 kts | 197° |
| 2026-04-29 23:06 | 8.96914 | -79.35610 | 6172 ft | 292 kts | 200° |
| 2026-04-29 23:07 | 8.95044 | -79.36442 | 6727 ft | 295 kts | 207° |
| 2026-04-29 23:07 | 8.93241 | -79.37441 | 7309 ft | 297 kts | 211° |
| 2026-04-29 23:07 | 8.91488 | -79.38572 | 7893 ft | 298 kts | 214° |
| 2026-04-29 23:07 | 8.89813 | -79.39830 | 8483 ft | 301 kts | 219° |
| 2026-04-29 23:08 | 8.88225 | -79.41222 | 9060 ft | 304 kts | 223° |
| 2026-04-29 23:08 | 8.86728 | -79.42743 | 9647 ft | 305 kts | 228° |
| 2026-04-29 23:08 | 8.85344 | -79.44395 | 10255 ft | 313 kts | 232° |
| 2026-04-29 23:08 | 8.84073 | -79.46209 | 10918 ft | 325 kts | 237° |
| 2026-04-29 23:09 | 8.82936 | -79.48219 | 11636 ft | 334 kts | 242° |
| 2026-04-29 23:09 | 8.81873 | -79.50328 | 12378 ft | 339 kts | 240° |
| 2026-04-29 23:09 | 8.80717 | -79.52438 | 13139 ft | 344 kts | 242° |
| 2026-04-29 23:09 | 8.79860 | -79.54714 | 13872 ft | 350 kts | 255° |
| 2026-04-29 23:10 | 8.79633 | -79.57182 | 14590 ft | 356 kts | 273° |
| 2026-04-29 23:10 | 8.80279 | -79.59611 | 15284 ft | 362 kts | 295° |
| 2026-04-29 23:10 | 8.81716 | -79.61704 | 16056 ft | 363 kts | 309° |
| 2026-04-29 23:10 | 8.83347 | -79.63608 | 16870 ft | 364 kts | 310° |
| 2026-04-29 23:11 | 8.84914 | -79.65628 | 17680 ft | 366 kts | 303° |
| 2026-04-29 23:11 | 8.86257 | -79.67823 | 18488 ft | 367 kts | 299° |
| 2026-04-29 23:11 | 8.87438 | -79.69993 | 19219 ft | 332 kts | 296° |
| 2026-04-29 23:11 | 8.88405 | -79.71966 | 19741 ft | 298 kts | 293° |
| 2026-04-29 23:12 | 8.89216 | -79.73873 | 20150 ft | 296 kts | 290° |
| 2026-04-29 23:12 | 8.89920 | -79.75824 | 20580 ft | 296 kts | 287° |
| 2026-04-29 23:12 | 8.90521 | -79.77821 | 21019 ft | 297 kts | 283° |
| 2026-04-29 23:12 | 8.91009 | -79.79832 | 21471 ft | 298 kts | 280° |
| 2026-04-29 23:13 | 8.91396 | -79.81894 | 21937 ft | 299 kts | 277° |
| 2026-04-29 23:13 | 8.91676 | -79.83984 | 22416 ft | 301 kts | 274° |
| 2026-04-29 23:13 | 8.91848 | -79.86096 | 22885 ft | 302 kts | 271° |
| 2026-04-29 23:13 | 8.91917 | -79.88231 | 23356 ft | 303 kts | 268° |
| 2026-04-29 23:14 | 8.91867 | -79.90371 | 23880 ft | 304 kts | 265° |
| 2026-04-29 23:14 | 8.91705 | -79.92516 | 24359 ft | 306 kts | 262° |
| 2026-04-29 23:14 | 8.91436 | -79.94630 | 24833 ft | 308 kts | 259° |
| 2026-04-29 23:14 | 8.91111 | -79.96775 | 25288 ft | 311 kts | 265° |
| 2026-04-29 23:15 | 8.91529 | -79.98938 | 25584 ft | 320 kts | 292° |
| 2026-04-29 23:15 | 8.92806 | -80.00801 | 26014 ft | 323 kts | 307° |
| 2026-04-29 23:15 | 8.94345 | -80.02481 | 26552 ft | 328 kts | 310° |
| 2026-04-29 23:15 | 8.95944 | -80.04103 | 27089 ft | 331 kts | 311° |
| 2026-04-29 23:16 | 8.97601 | -80.05746 | 27628 ft | 335 kts | 311° |
| 2026-04-29 23:16 | 8.99249 | -80.07428 | 28148 ft | 337 kts | 309° |
| 2026-04-29 23:16 | 9.00841 | -80.09176 | 28671 ft | 339 kts | 307° |
| 2026-04-29 23:16 | 9.02377 | -80.11005 | 29186 ft | 341 kts | 304° |
| 2026-04-29 23:17 | 9.03837 | -80.12900 | 29707 ft | 342 kts | 302° |
| 2026-04-29 23:17 | 9.05223 | -80.14872 | 30232 ft | 343 kts | 299° |
| 2026-04-29 23:17 | 9.06505 | -80.16879 | 30754 ft | 345 kts | 296° |
| 2026-04-29 23:17 | 9.07723 | -80.18988 | 31282 ft | 348 kts | 294° |
| 2026-04-29 23:18 | 9.08853 | -80.21164 | 31816 ft | 349 kts | 291° |
| 2026-04-29 23:18 | 9.09890 | -80.23400 | 32343 ft | 351 kts | 288° |
| 2026-04-29 23:18 | 9.10828 | -80.25684 | 32882 ft | 352 kts | 285° |
| 2026-04-29 23:18 | 9.11669 | -80.28023 | 33419 ft | 353 kts | 282° |
| 2026-04-29 23:19 | 9.12400 | -80.30376 | 33945 ft | 354 kts | 279° |
| 2026-04-29 23:19 | 9.13036 | -80.32793 | 34470 ft | 354 kts | 277° |
| 2026-04-29 23:19 | 9.13564 | -80.35230 | 35004 ft | 354 kts | 275° |
| 2026-04-29 23:19 | 9.13998 | -80.37646 | 35505 ft | 355 kts | 275° |
| 2026-04-29 23:20 | 9.14712 | -80.40079 | 35981 ft | 364 kts | 285° |
| 2026-04-29 23:20 | 9.15875 | -80.42394 | 36450 ft | 374 kts | 296° |
| 2026-04-29 23:20 | 9.17505 | -80.44490 | 36929 ft | 382 kts | 307° |
| 2026-04-29 23:20 | 9.19330 | -80.46412 | 37456 ft | 383 kts | 308° |
| 2026-04-29 23:21 | 9.21176 | -80.48353 | 37982 ft | 382 kts | 308° |
| 2026-04-29 23:21 | 9.23006 | -80.50304 | 38498 ft | 382 kts | 308° |
| 2026-04-29 23:21 | 9.24829 | -80.52274 | 38759 ft | 389 kts | 308° |
| 2026-04-29 23:21 | 9.26686 | -80.54312 | 38753 ft | 394 kts | 307° |
| 2026-04-29 23:22 | 9.30387 | -80.58408 | 38749 ft | 395 kts | 307° |
| 2026-04-29 23:22 | 9.34086 | -80.62516 | 38757 ft | 394 kts | 307° |
| 2026-04-29 23:23 | 9.37779 | -80.66628 | 38776 ft | 395 kts | 307° |
| 2026-04-29 23:23 | 9.41480 | -80.70746 | 38777 ft | 394 kts | 307° |
| 2026-04-29 23:24 | 9.45145 | -80.74822 | 38777 ft | 394 kts | 307° |
| 2026-04-29 23:24 | 9.48844 | -80.78932 | 38787 ft | 394 kts | 307° |
| 2026-04-29 23:25 | 9.52522 | -80.83019 | 38791 ft | 394 kts | 307° |
| 2026-04-29 23:25 | 9.56216 | -80.87119 | 38788 ft | 394 kts | 307° |
| 2026-04-29 23:26 | 9.59915 | -80.91226 | 38763 ft | 394 kts | 307° |
| 2026-04-29 23:26 | 9.63583 | -80.95351 | 38769 ft | 393 kts | 306° |
| 2026-04-29 23:27 | 9.67036 | -80.99631 | 38767 ft | 391 kts | 302° |
| 2026-04-29 23:27 | 9.70130 | -81.04106 | 38763 ft | 388 kts | 298° |
| 2026-04-29 23:28 | 9.72867 | -81.08813 | 38762 ft | 386 kts | 293° |
| 2026-04-29 23:28 | 9.75195 | -81.13664 | 38762 ft | 383 kts | 289° |
| 2026-04-29 23:29 | 9.77169 | -81.18672 | 38763 ft | 383 kts | 289° |
| 2026-04-29 23:29 | 9.79965 | -81.23348 | 38776 ft | 390 kts | 301° |
| 2026-04-29 23:30 | 9.83278 | -81.27683 | 38780 ft | 392 kts | 303° |
| 2026-04-29 23:30 | 9.86718 | -81.31985 | 38787 ft | 392 kts | 304° |
| 2026-04-29 23:31 | 9.90160 | -81.36248 | 38788 ft | 392 kts | 304° |
| 2026-04-29 23:31 | 9.93629 | -81.40538 | 38776 ft | 392 kts | 304° |
| 2026-04-29 23:32 | 9.97072 | -81.44793 | 38781 ft | 392 kts | 304° |
| 2026-04-29 23:32 | 10.00533 | -81.49067 | 38810 ft | 392 kts | 304° |
| 2026-04-29 23:33 | 10.04010 | -81.53347 | 38810 ft | 392 kts | 304° |
| 2026-04-29 23:33 | 10.07468 | -81.57601 | 38808 ft | 392 kts | 304° |
| 2026-04-29 23:34 | 10.10921 | -81.61884 | 38807 ft | 391 kts | 303° |
| 2026-04-29 23:34 | 10.14139 | -81.66325 | 38816 ft | 389 kts | 300° |
| 2026-04-29 23:35 | 10.17046 | -81.70905 | 38812 ft | 387 kts | 296° |
| 2026-04-29 23:35 | 10.19677 | -81.75673 | 38809 ft | 385 kts | 292° |
| 2026-04-29 23:36 | 10.21982 | -81.80530 | 38818 ft | 383 kts | 289° |
| 2026-04-29 23:36 | 10.23976 | -81.85535 | 38822 ft | 381 kts | 285° |
| 2026-04-29 23:37 | 10.25604 | -81.90645 | 38819 ft | 379 kts | 282° |
| 2026-04-29 23:37 | 10.27932 | -81.95513 | 38816 ft | 388 kts | 299° |
| 2026-04-29 23:38 | 10.31177 | -81.99891 | 38828 ft | 392 kts | 304° |
| 2026-04-29 23:38 | 10.34621 | -82.04183 | 38830 ft | 392 kts | 304° |
| 2026-04-29 23:39 | 10.38099 | -82.08451 | 38821 ft | 391 kts | 305° |
| 2026-04-29 23:39 | 10.41583 | -82.12709 | 38817 ft | 391 kts | 305° |
| 2026-04-29 23:40 | 10.45043 | -82.16934 | 38816 ft | 391 kts | 305° |
| 2026-04-29 23:40 | 10.48538 | -82.21197 | 38823 ft | 391 kts | 305° |
| 2026-04-29 23:41 | 10.52021 | -82.25457 | 38822 ft | 392 kts | 305° |
| 2026-04-29 23:41 | 10.55484 | -82.29697 | 38826 ft | 391 kts | 305° |
| 2026-04-29 23:42 | 10.58961 | -82.33954 | 38826 ft | 391 kts | 305° |
| 2026-04-29 23:42 | 10.62409 | -82.38288 | 38832 ft | 402 kts | 303° |
| 2026-04-29 23:43 | 10.64137 | -82.40589 | 38828 ft | 417 kts | 305° |
| 2026-04-29 23:43 | 10.66223 | -82.42732 | 38823 ft | 436 kts | 315° |
| 2026-04-29 23:43 | 10.68644 | -82.44675 | 38835 ft | 451 kts | 319° |
| 2026-04-29 23:43 | 10.71231 | -82.46564 | 38835 ft | 464 kts | 321° |
| 2026-04-29 23:44 | 10.73915 | -82.48467 | 38834 ft | 476 kts | 321° |
| 2026-04-29 23:44 | 10.76631 | -82.50380 | 38832 ft | 487 kts | 321° |
| 2026-04-29 23:44 | 10.82286 | -82.54382 | 38833 ft | 497 kts | 321° |
| 2026-04-29 23:45 | 10.87963 | -82.58424 | 38819 ft | 498 kts | 321° |
| 2026-04-29 23:45 | 10.93568 | -82.62422 | 38808 ft | 488 kts | 321° |
| 2026-04-29 23:46 | 10.99115 | -82.66438 | 38819 ft | 490 kts | 320° |
| 2026-04-29 23:46 | 11.04450 | -82.70670 | 38819 ft | 488 kts | 317° |
| 2026-04-29 23:47 | 11.09575 | -82.75216 | 38818 ft | 486 kts | 313° |
| 2026-04-29 23:47 | 11.14357 | -82.80007 | 38820 ft | 484 kts | 310° |
| 2026-04-29 23:48 | 11.18848 | -82.85102 | 38819 ft | 481 kts | 306° |
| 2026-04-29 23:48 | 11.22984 | -82.90439 | 38817 ft | 479 kts | 303° |
| 2026-04-29 23:49 | 11.26771 | -82.96028 | 38812 ft | 477 kts | 299° |
| 2026-04-29 23:49 | 11.30251 | -83.01770 | 38805 ft | 477 kts | 300° |
| 2026-04-29 23:50 | 11.34632 | -83.06859 | 38844 ft | 484 kts | 314° |
| 2026-04-29 23:51 | 11.42663 | -83.13203 | 38849 ft | 488 kts | 320° |
| 2026-04-29 23:51 | 11.48220 | -83.17209 | 38849 ft | 488 kts | 321° |
| 2026-04-29 23:52 | 11.53792 | -83.21170 | 38844 ft | 488 kts | 321° |
| 2026-04-29 23:52 | 11.59324 | -83.25089 | 38841 ft | 487 kts | 321° |
| 2026-04-29 23:53 | 11.64891 | -83.29027 | 38830 ft | 487 kts | 321° |
| 2026-04-29 23:53 | 11.70459 | -83.32966 | 38834 ft | 486 kts | 321° |
| 2026-04-29 23:54 | 11.76016 | -83.36894 | 38832 ft | 486 kts | 321° |
| 2026-04-29 23:54 | 11.80639 | -83.40159 | 38832 ft | 485 kts | 321° |
| 2026-04-29 23:55 | 11.86196 | -83.44084 | 38830 ft | 485 kts | 321° |
| 2026-04-29 23:55 | 11.91755 | -83.48005 | 38830 ft | 485 kts | 321° |
| 2026-04-29 23:56 | 11.97310 | -83.51919 | 38833 ft | 484 kts | 321° |
| 2026-04-29 23:56 | 12.02865 | -83.55821 | 38837 ft | 484 kts | 321° |
| 2026-04-29 23:57 | 12.08421 | -83.59720 | 38834 ft | 484 kts | 321° |
| 2026-04-29 23:57 | 12.13975 | -83.63617 | 38828 ft | 484 kts | 321° |
| 2026-04-29 23:58 | 12.19530 | -83.67512 | 38828 ft | 484 kts | 321° |
| 2026-04-29 23:58 | 12.25078 | -83.71402 | 38828 ft | 484 kts | 321° |
| 2026-04-29 23:59 | 12.30603 | -83.75277 | 38827 ft | 484 kts | 321° |
| 2026-04-29 23:59 | 12.36156 | -83.79171 | 38826 ft | 484 kts | 321° |
| 2026-04-30 00:00 | 12.41716 | -83.83068 | 38826 ft | 484 kts | 322° |
| 2026-04-30 00:00 | 12.47275 | -83.86961 | 38826 ft | 484 kts | 321° |
| 2026-04-30 00:01 | 12.52841 | -83.90844 | 38827 ft | 484 kts | 322° |
| 2026-04-30 00:01 | 12.58370 | -83.94767 | 38829 ft | 476 kts | 320° |
| 2026-04-30 00:02 | 12.63592 | -83.98834 | 38816 ft | 477 kts | 317° |
| 2026-04-30 00:02 | 12.66163 | -84.00995 | 38649 ft | 473 kts | 316° |
| 2026-04-30 00:02 | 12.68627 | -84.03163 | 38248 ft | 458 kts | 314° |
| 2026-04-30 00:02 | 12.70960 | -84.05315 | 37977 ft | 445 kts | 313° |
| 2026-04-30 00:03 | 12.73193 | -84.07480 | 37708 ft | 442 kts | 311° |
| 2026-04-30 00:03 | 12.75381 | -84.09722 | 37457 ft | 447 kts | 310° |
| 2026-04-30 00:03 | 12.77524 | -84.12038 | 37219 ft | 449 kts | 308° |
| 2026-04-30 00:03 | 12.79618 | -84.14422 | 36985 ft | 450 kts | 307° |
| 2026-04-30 00:04 | 12.81650 | -84.16861 | 36745 ft | 450 kts | 305° |
| 2026-04-30 00:04 | 12.83591 | -84.19326 | 36509 ft | 450 kts | 303° |
| 2026-04-30 00:04 | 12.85507 | -84.21913 | 36262 ft | 450 kts | 302° |
| 2026-04-30 00:04 | 12.87299 | -84.24499 | 36020 ft | 452 kts | 300° |
| 2026-04-30 00:05 | 12.89040 | -84.27190 | 35765 ft | 455 kts | 298° |
| 2026-04-30 00:05 | 12.90709 | -84.29965 | 35527 ft | 458 kts | 296° |
| 2026-04-30 00:05 | 12.92290 | -84.32796 | 35281 ft | 457 kts | 294° |
| 2026-04-30 00:05 | 12.93883 | -84.35627 | 35026 ft | 460 kts | 298° |
| 2026-04-30 00:06 | 12.95798 | -84.38277 | 34766 ft | 466 kts | 305° |
| 2026-04-30 00:06 | 12.98062 | -84.40681 | 34512 ft | 471 kts | 312° |
| 2026-04-30 00:06 | 13.00573 | -84.42870 | 34268 ft | 474 kts | 316° |
| 2026-04-30 00:06 | 13.03199 | -84.44947 | 34019 ft | 477 kts | 318° |
| 2026-04-30 00:07 | 13.05877 | -84.46966 | 33786 ft | 478 kts | 319° |
| 2026-04-30 00:07 | 13.08580 | -84.48956 | 33542 ft | 479 kts | 319° |
| 2026-04-30 00:07 | 13.11305 | -84.50938 | 33298 ft | 479 kts | 320° |
| 2026-04-30 00:07 | 13.14033 | -84.52909 | 33053 ft | 480 kts | 320° |
| 2026-04-30 00:08 | 13.16734 | -84.54854 | 32811 ft | 481 kts | 320° |
| 2026-04-30 00:08 | 13.19479 | -84.56825 | 32564 ft | 481 kts | 320° |
| 2026-04-30 00:08 | 13.22224 | -84.58790 | 32317 ft | 481 kts | 320° |
| 2026-04-30 00:08 | 13.24975 | -84.60755 | 32071 ft | 482 kts | 320° |
| 2026-04-30 00:09 | 13.27737 | -84.62726 | 31824 ft | 483 kts | 320° |
| 2026-04-30 00:09 | 13.30493 | -84.64690 | 31578 ft | 483 kts | 320° |
| 2026-04-30 00:09 | 13.33259 | -84.66661 | 31338 ft | 484 kts | 320° |
| 2026-04-30 00:09 | 13.36028 | -84.68633 | 31089 ft | 485 kts | 320° |
| 2026-04-30 00:10 | 13.38801 | -84.70611 | 30841 ft | 484 kts | 320° |
| 2026-04-30 00:10 | 13.41537 | -84.72565 | 30596 ft | 486 kts | 320° |
| 2026-04-30 00:10 | 13.44312 | -84.74549 | 30348 ft | 485 kts | 320° |
| 2026-04-30 00:10 | 13.47078 | -84.76525 | 30102 ft | 483 kts | 320° |
| 2026-04-30 00:11 | 13.49834 | -84.78492 | 29847 ft | 481 kts | 320° |
| 2026-04-30 00:11 | 13.52574 | -84.80446 | 29594 ft | 479 kts | 320° |
| 2026-04-30 00:11 | 13.55299 | -84.82398 | 29342 ft | 477 kts | 320° |
| 2026-04-30 00:11 | 13.58011 | -84.84353 | 29087 ft | 475 kts | 320° |
| 2026-04-30 00:12 | 13.60700 | -84.86305 | 28830 ft | 472 kts | 320° |
| 2026-04-30 00:12 | 13.63371 | -84.88258 | 28585 ft | 470 kts | 320° |
| 2026-04-30 00:12 | 13.66021 | -84.90212 | 28333 ft | 468 kts | 320° |
| 2026-04-30 00:12 | 13.68654 | -84.92172 | 28083 ft | 465 kts | 320° |
| 2026-04-30 00:13 | 13.71263 | -84.94131 | 27833 ft | 464 kts | 320° |
| 2026-04-30 00:13 | 13.73862 | -84.96097 | 27585 ft | 463 kts | 320° |
| 2026-04-30 00:13 | 13.76439 | -84.98060 | 27334 ft | 459 kts | 320° |
| 2026-04-30 00:13 | 13.78998 | -85.00028 | 27079 ft | 458 kts | 320° |
| 2026-04-30 00:14 | 13.81542 | -85.02003 | 26836 ft | 456 kts | 320° |
| 2026-04-30 00:14 | 13.84022 | -85.03948 | 26586 ft | 453 kts | 321° |
| 2026-04-30 00:14 | 13.86511 | -85.05920 | 26339 ft | 451 kts | 320° |
| 2026-04-30 00:14 | 13.88988 | -85.07902 | 26087 ft | 449 kts | 321° |
| 2026-04-30 00:15 | 13.91436 | -85.09880 | 25841 ft | 447 kts | 320° |
| 2026-04-30 00:15 | 13.93871 | -85.11866 | 25590 ft | 445 kts | 320° |
| 2026-04-30 00:15 | 13.96291 | -85.13857 | 25342 ft | 444 kts | 320° |
| 2026-04-30 00:15 | 13.98690 | -85.15849 | 25092 ft | 441 kts | 321° |
| 2026-04-30 00:16 | 14.01059 | -85.17834 | 24842 ft | 438 kts | 320° |
| 2026-04-30 00:16 | 14.03422 | -85.19817 | 24589 ft | 437 kts | 320° |
| 2026-04-30 00:16 | 14.05773 | -85.21801 | 24336 ft | 435 kts | 320° |
| 2026-04-30 00:16 | 14.08072 | -85.23762 | 24278 ft | 416 kts | 321° |
| 2026-04-30 00:17 | 14.10255 | -85.25643 | 24289 ft | 411 kts | 320° |
| 2026-04-30 00:17 | 14.12459 | -85.27557 | 24294 ft | 428 kts | 320° |
| 2026-04-30 00:17 | 14.14766 | -85.29567 | 24308 ft | 439 kts | 320° |
| 2026-04-30 00:17 | 14.17142 | -85.31637 | 24316 ft | 443 kts | 320° |
| 2026-04-30 00:18 | 14.19466 | -85.33662 | 24310 ft | 444 kts | 320° |
| 2026-04-30 00:18 | 14.21830 | -85.35722 | 24314 ft | 445 kts | 320° |
| 2026-04-30 00:18 | 14.24195 | -85.37782 | 24319 ft | 446 kts | 320° |
| 2026-04-30 00:18 | 14.26559 | -85.39842 | 24314 ft | 446 kts | 320° |
| 2026-04-30 00:19 | 14.28931 | -85.41908 | 24323 ft | 446 kts | 320° |
| 2026-04-30 00:19 | 14.31301 | -85.43973 | 24317 ft | 446 kts | 320° |
| 2026-04-30 00:19 | 14.33674 | -85.46040 | 24320 ft | 446 kts | 320° |
| 2026-04-30 00:19 | 14.36042 | -85.48105 | 24320 ft | 445 kts | 320° |
| 2026-04-30 00:20 | 14.38405 | -85.50167 | 24312 ft | 446 kts | 320° |
| 2026-04-30 00:20 | 14.40777 | -85.52238 | 24322 ft | 446 kts | 320° |
| 2026-04-30 00:20 | 14.43145 | -85.54307 | 24330 ft | 445 kts | 320° |
| 2026-04-30 00:20 | 14.45511 | -85.56374 | 24330 ft | 445 kts | 320° |
| 2026-04-30 00:21 | 14.47874 | -85.58439 | 24331 ft | 446 kts | 320° |
| 2026-04-30 00:21 | 14.50238 | -85.60506 | 24339 ft | 445 kts | 320° |
| 2026-04-30 00:21 | 14.52603 | -85.62571 | 24339 ft | 446 kts | 320° |
| 2026-04-30 00:21 | 14.54972 | -85.64640 | 24339 ft | 445 kts | 320° |
| 2026-04-30 00:22 | 14.57332 | -85.66706 | 24339 ft | 445 kts | 320° |
| 2026-04-30 00:22 | 14.59697 | -85.68776 | 24346 ft | 445 kts | 320° |
| 2026-04-30 00:22 | 14.62028 | -85.70818 | 24351 ft | 445 kts | 320° |
| 2026-04-30 00:22 | 14.64391 | -85.72888 | 24229 ft | 447 kts | 320° |
| 2026-04-30 00:23 | 14.66754 | -85.74960 | 23868 ft | 444 kts | 321° |
| 2026-04-30 00:23 | 14.69094 | -85.77022 | 23486 ft | 440 kts | 321° |
| 2026-04-30 00:23 | 14.71405 | -85.79071 | 23106 ft | 436 kts | 321° |
| 2026-04-30 00:23 | 14.73680 | -85.81097 | 22726 ft | 422 kts | 321° |
| 2026-04-30 00:24 | 14.75838 | -85.83030 | 22339 ft | 400 kts | 320° |
| 2026-04-30 00:24 | 14.77832 | -85.84966 | 21941 ft | 387 kts | 317° |
| 2026-04-30 00:24 | 14.79714 | -85.86930 | 21549 ft | 382 kts | 316° |
| 2026-04-30 00:24 | 14.81548 | -85.88911 | 21125 ft | 381 kts | 315° |
| 2026-04-30 00:25 | 14.83360 | -85.90904 | 20772 ft | 380 kts | 315° |
| 2026-04-30 00:25 | 14.85138 | -85.92883 | 20425 ft | 379 kts | 315° |
| 2026-04-30 00:25 | 14.86923 | -85.94885 | 20077 ft | 378 kts | 315° |
| 2026-04-30 00:25 | 14.88696 | -85.96879 | 19731 ft | 375 kts | 315° |
| 2026-04-30 00:26 | 14.90458 | -85.98861 | 19382 ft | 373 kts | 315° |
| 2026-04-30 00:26 | 14.92212 | -86.00836 | 19034 ft | 373 kts | 315° |
| 2026-04-30 00:26 | 14.93956 | -86.02815 | 18688 ft | 371 kts | 315° |
| 2026-04-30 00:26 | 14.95684 | -86.04793 | 18331 ft | 369 kts | 315° |
| 2026-04-30 00:27 | 14.97396 | -86.06764 | 17984 ft | 368 kts | 315° |
| 2026-04-30 00:27 | 14.99102 | -86.08736 | 17633 ft | 366 kts | 314° |
| 2026-04-30 00:27 | 15.00793 | -86.10688 | 17280 ft | 364 kts | 314° |
| 2026-04-30 00:27 | 15.02486 | -86.12638 | 16931 ft | 362 kts | 314° |
| 2026-04-30 00:28 | 15.04170 | -86.14572 | 16579 ft | 360 kts | 314° |
| 2026-04-30 00:28 | 15.05850 | -86.16488 | 16226 ft | 359 kts | 314° |
| 2026-04-30 00:28 | 15.07525 | -86.18392 | 15879 ft | 357 kts | 314° |
| 2026-04-30 00:28 | 15.09199 | -86.20286 | 15529 ft | 355 kts | 314° |
| 2026-04-30 00:29 | 15.10864 | -86.22162 | 15182 ft | 354 kts | 315° |
| 2026-04-30 00:29 | 15.12530 | -86.24034 | 14827 ft | 352 kts | 315° |
| 2026-04-30 00:29 | 15.14171 | -86.25870 | 14484 ft | 350 kts | 314° |
| 2026-04-30 00:29 | 15.15824 | -86.27712 | 14132 ft | 349 kts | 315° |
| 2026-04-30 00:30 | 15.17478 | -86.29546 | 13785 ft | 348 kts | 315° |
| 2026-04-30 00:30 | 15.19128 | -86.31370 | 13433 ft | 346 kts | 314° |
| 2026-04-30 00:30 | 15.20772 | -86.33178 | 13077 ft | 344 kts | 314° |
| 2026-04-30 00:30 | 15.22415 | -86.34976 | 12754 ft | 344 kts | 315° |
| 2026-04-30 00:31 | 15.24048 | -86.36755 | 12710 ft | 340 kts | 315° |
| 2026-04-30 00:31 | 15.25692 | -86.38539 | 12713 ft | 342 kts | 315° |
| 2026-04-30 00:31 | 15.27339 | -86.40322 | 12712 ft | 343 kts | 315° |
| 2026-04-30 00:31 | 15.28993 | -86.42109 | 12707 ft | 343 kts | 315° |
| 2026-04-30 00:32 | 15.30649 | -86.43893 | 12697 ft | 342 kts | 315° |
| 2026-04-30 00:32 | 15.32301 | -86.45672 | 12698 ft | 342 kts | 315° |
| 2026-04-30 00:32 | 15.33957 | -86.47457 | 12695 ft | 344 kts | 315° |
| 2026-04-30 00:32 | 15.35615 | -86.49243 | 12693 ft | 343 kts | 315° |
| 2026-04-30 00:33 | 15.37270 | -86.51028 | 12695 ft | 344 kts | 315° |
| 2026-04-30 00:33 | 15.38926 | -86.52813 | 12682 ft | 344 kts | 315° |
| 2026-04-30 00:33 | 15.40581 | -86.54598 | 12671 ft | 343 kts | 315° |
| 2026-04-30 00:33 | 15.42238 | -86.56387 | 12662 ft | 343 kts | 315° |
| 2026-04-30 00:34 | 15.43893 | -86.58178 | 12665 ft | 344 kts | 315° |
| 2026-04-30 00:34 | 15.45550 | -86.59973 | 12664 ft | 345 kts | 315° |
| 2026-04-30 00:34 | 15.47182 | -86.61741 | 12661 ft | 344 kts | 315° |
| 2026-04-30 00:34 | 15.48841 | -86.63538 | 12657 ft | 344 kts | 315° |
| 2026-04-30 00:35 | 15.50499 | -86.65333 | 12649 ft | 344 kts | 315° |
| 2026-04-30 00:35 | 15.52153 | -86.67122 | 12652 ft | 344 kts | 315° |
| 2026-04-30 00:35 | 15.53813 | -86.68916 | 12655 ft | 344 kts | 315° |
| 2026-04-30 00:35 | 15.55470 | -86.70708 | 12642 ft | 344 kts | 315° |
| 2026-04-30 00:36 | 15.57122 | -86.72496 | 12632 ft | 341 kts | 315° |
| 2026-04-30 00:36 | 15.58777 | -86.74290 | 12641 ft | 345 kts | 315° |
| 2026-04-30 00:36 | 15.60433 | -86.76082 | 12641 ft | 344 kts | 315° |
| 2026-04-30 00:36 | 15.62091 | -86.77873 | 12640 ft | 344 kts | 315° |
| 2026-04-30 00:37 | 15.63751 | -86.79666 | 12643 ft | 344 kts | 315° |
| 2026-04-30 00:37 | 15.65408 | -86.81459 | 12636 ft | 346 kts | 315° |
| 2026-04-30 00:37 | 15.67070 | -86.83259 | 12646 ft | 345 kts | 315° |
| 2026-04-30 00:37 | 15.68730 | -86.85063 | 12654 ft | 344 kts | 315° |
| 2026-04-30 00:38 | 15.70698 | -86.86430 | 12573 ft | 339 kts | 341° |
| 2026-04-30 00:38 | 15.73020 | -86.86640 | 12585 ft | 336 kts | 10° |
| 2026-04-30 00:38 | 15.75241 | -86.85902 | 12471 ft | 335 kts | 24° |
| 2026-04-30 00:38 | 15.77310 | -86.84880 | 12263 ft | 319 kts | 28° |
| 2026-04-30 00:39 | 15.79225 | -86.83858 | 12027 ft | 301 kts | 28° |
| 2026-04-30 00:39 | 15.80446 | -86.83204 | 11860 ft | 295 kts | 28° |
| 2026-04-30 00:39 | 15.82848 | -86.81928 | 11517 ft | 292 kts | 28° |
| 2026-04-30 00:39 | 15.84657 | -86.80976 | 11259 ft | 291 kts | 28° |
| 2026-04-30 00:40 | 15.86467 | -86.80028 | 11004 ft | 291 kts | 28° |
| 2026-04-30 00:40 | 15.88274 | -86.79084 | 10752 ft | 291 kts | 28° |
| 2026-04-30 00:40 | 15.90081 | -86.78140 | 10501 ft | 291 kts | 28° |
| 2026-04-30 00:40 | 15.91884 | -86.77195 | 10250 ft | 290 kts | 28° |
| 2026-04-30 00:41 | 15.93683 | -86.76256 | 10001 ft | 289 kts | 28° |
| 2026-04-30 00:41 | 15.95479 | -86.75327 | 9754 ft | 288 kts | 28° |
| 2026-04-30 00:41 | 15.96692 | -86.74700 | 9583 ft | 287 kts | 28° |
| 2026-04-30 00:41 | 15.98457 | -86.73788 | 9337 ft | 287 kts | 28° |
| 2026-04-30 00:42 | 16.00243 | -86.72867 | 9089 ft | 286 kts | 28° |
| 2026-04-30 00:42 | 16.02033 | -86.71945 | 8716 ft | 288 kts | 28° |
| 2026-04-30 00:42 | 16.03826 | -86.71027 | 8292 ft | 285 kts | 28° |
| 2026-04-30 00:42 | 16.05594 | -86.70130 | 7862 ft | 281 kts | 28° |
| 2026-04-30 00:43 | 16.07335 | -86.69251 | 7437 ft | 277 kts | 28° |
| 2026-04-30 00:43 | 16.09127 | -86.68532 | 6992 ft | 275 kts | 19° |
| 2026-04-30 00:43 | 16.10986 | -86.68015 | 6425 ft | 276 kts | 17° |
| 2026-04-30 00:43 | 16.12852 | -86.67546 | 5830 ft | 276 kts | 16° |
| 2026-04-30 00:44 | 16.14733 | -86.67136 | 5215 ft | 276 kts | 9° |
| 2026-04-30 00:44 | 16.16665 | -86.67121 | 4604 ft | 277 kts | 0° |
| 2026-04-30 00:44 | 16.18583 | -86.67266 | 4011 ft | 276 kts | 359° |
| 2026-04-30 00:44 | 16.20460 | -86.67424 | 3432 ft | 274 kts | 359° |
| 2026-04-30 00:45 | 16.22353 | -86.67581 | 2841 ft | 272 kts | 359° |
| 2026-04-30 00:45 | 16.24225 | -86.67733 | 2249 ft | 269 kts | 359° |
| 2026-04-30 00:45 | 16.26076 | -86.67872 | 1849 ft | 259 kts | 359° |
| 2026-04-30 00:45 | 16.27759 | -86.67587 | 1780 ft | 242 kts | 30° |
| 2026-04-30 00:46 | 16.28842 | -86.66361 | 1796 ft | 221 kts | 62° |
| 2026-04-30 00:46 | 16.29457 | -86.64968 | 1865 ft | 208 kts | 66° |
| 2026-04-30 00:46 | 16.30025 | -86.63583 | 1869 ft | 208 kts | 67° |
| 2026-04-30 00:46 | 16.30585 | -86.62196 | 1854 ft | 207 kts | 71° |
| 2026-04-30 00:47 | 16.30792 | -86.60729 | 1785 ft | 198 kts | 88° |
| 2026-04-30 00:47 | 16.30698 | -86.59389 | 1353 ft | 177 kts | 95° |
| 2026-04-30 00:47 | 16.30529 | -86.58220 | 1112 ft | 152 kts | 95° |
| 2026-04-30 00:47 | 16.30383 | -86.57230 | 1060 ft | 129 kts | 96° |
| 2026-04-30 00:48 | 16.30254 | -86.56299 | 885 ft | 132 kts | 95° |
| 2026-04-30 00:48 | 16.30217 | -86.55369 | 779 ft | 126 kts | 79° |
| 2026-04-30 00:48 | 16.30626 | -86.54539 | 529 ft | 132 kts | 54° |
| 2026-04-30 00:48 | 16.31040 | -86.53737 | 224 ft | 126 kts | 59° |
| 2026-04-30 00:49 | 16.31409 | -86.52950 | 24 ft | 116 kts | 65° |
| 2026-04-30 00:49 | 16.31702 | -86.52287 | 24 ft | 78 kts | 67° |
| 2026-04-30 00:49 | 16.31860 | -86.51931 | 24 ft | 34 kts | 69° |
| 2026-04-30 00:49 | 16.31910 | -86.51816 | 22 ft | 5 kts | 349° |
| 2026-04-30 00:50 | 16.31911 | -86.51831 | 22 ft | 3 kts | 250° |
| 2026-04-30 00:50 | 16.31886 | -86.51881 | 25 ft | 13 kts | 243° |
| 2026-04-30 00:50 | 16.31830 | -86.52013 | 26 ft | 27 kts | 248° |
| 2026-04-30 00:50 | 16.31743 | -86.52227 | 24 ft | 35 kts | 246° |
| 2026-04-30 00:51 | 16.31632 | -86.52456 | 24 ft | 28 kts | 253° |
| 2026-04-30 00:51 | 16.31693 | -86.52554 | 26 ft | 14 kts | 316° |
| 2026-04-30 00:51 | 16.31760 | -86.52597 | 27 ft | 10 kts | 338° |
| 2026-04-30 00:51 | 16.31776 | -86.52605 | 27 ft | 0 kts | 333° |